Time;durP1;ratioP1;P1;durP2;ratioP2;P2;SDS_P1;SDS_P2;PMS_P1;PMS_P2;Temp;Humidity;BMP_temperature;BMP_pressure;BME280_temperature;BME280_humidity;BME280_pressure;Samples;Min_cycle;Max_cycle;Signal;HPM_P1;HPM_P2
2022/10/29 00:02:07;;;;;;;8.27;5.17;;;;;;;15.51;nan;100165.91;4894763;29;20232;-76
2022/10/29 00:04:32;;;;;;;8.53;4.50;;;;;;;15.47;nan;100170.59;4894534;29;20187;-77
2022/10/29 00:06:58;;;;;;;10.00;5.60;;;;;;;15.45;nan;100174.31;4895174;29;20266;-76
2022/10/29 00:09:23;;;;;;;7.33;3.90;;;;;;;15.40;nan;100173.81;4893524;29;20207;-76
2022/10/29 00:11:49;;;;;;;4.13;3.83;;;;;;;15.36;nan;100164.41;4895380;29;20200;-76
2022/10/29 00:14:15;;;;;;;8.30;4.00;;;;;;;15.30;nan;100170.16;4894188;29;20299;-76
2022/10/29 00:16:40;;;;;;;7.20;3.75;;;;;;;15.23;nan;100162.69;4895172;29;20195;-75
2022/10/29 00:19:06;;;;;;;9.30;4.33;;;;;;;15.17;nan;100157.81;4894743;29;20640;-76
2022/10/29 00:21:31;;;;;;;10.00;4.80;;;;;;;15.15;nan;100165.03;4894879;29;20230;-76
2022/10/29 00:23:57;;;;;;;12.60;4.00;;;;;;;15.13;nan;100171.41;4895078;29;20198;-75
2022/10/29 00:26:24;;;;;;;10.30;4.70;;;;;;;15.13;nan;100169.59;4894481;29;20293;-75
2022/10/29 00:28:54;;;;;;;12.75;6.07;;;;;;;15.13;nan;100172.25;4894489;29;20249;-76
2022/10/29 00:31:23;;;;;;;13.95;6.07;;;;;;;15.12;nan;100173.22;4892525;29;20757;-76
2022/10/29 00:33:49;;;;;;;9.52;5.60;;;;;;;15.09;nan;100164.63;4893312;29;20197;-75
2022/10/29 00:36:18;;;;;;;6.88;4.75;;;;;;;15.07;nan;100170.06;4894976;29;20309;-76
2022/10/29 00:38:44;;;;;;;7.53;5.07;;;;;;;15.02;nan;100165.09;4894077;29;20230;-76
2022/10/29 00:41:12;;;;;;;9.57;5.40;;;;;;;14.99;nan;100169.78;4890756;29;20196;-75
2022/10/29 00:43:42;;;;;;;10.40;6.72;;;;;;;14.96;nan;100164.69;4893571;29;20948;-76
2022/10/29 00:46:11;;;;;;;11.05;6.20;;;;;;;14.94;nan;100170.09;4892775;29;20219;-76
2022/10/29 00:48:44;;;;;;;8.10;4.40;;;;;;;14.88;nan;100173.19;4893172;29;20237;-76
2022/10/29 00:51:12;;;;;;;8.95;5.60;;;;;;;14.83;nan;100178.81;4891968;29;20556;-76
2022/10/29 00:53:43;;;;;;;10.40;6.05;;;;;;;14.81;nan;100177.25;4894239;29;20735;-76
2022/10/29 00:56:10;;;;;;;11.77;6.38;;;;;;;14.78;nan;100186.22;4897549;29;20688;-75
2022/10/29 00:58:35;;;;;;;9.18;4.45;;;;;;;14.74;nan;100182.13;4897802;29;20887;-76
2022/10/29 01:01:01;;;;;;;10.40;4.47;;;;;;;14.73;nan;100171.66;4894962;29;20655;-76
2022/10/29 01:03:26;;;;;;;7.83;4.30;;;;;;;14.73;nan;100174.31;4897842;29;20197;-76
2022/10/29 01:05:53;;;;;;;7.83;4.67;;;;;;;14.71;nan;100173.56;4896818;29;20679;-76
2022/10/29 01:08:19;;;;;;;8.00;3.70;;;;;;;14.70;nan;100175.38;4887933;29;20470;-76
2022/10/29 01:11:08;;;;;;;8.70;4.50;;;;;;;14.67;nan;100164.16;4897038;29;20194;-76
2022/10/29 01:13:56;;;;;;;11.93;5.15;;;;;;;14.66;nan;100170.41;4896102;29;20830;-76
2022/10/29 01:17:00;;;;;;;7.55;4.85;;;;;;;14.66;nan;100170.41;4897084;29;20187;-76
2022/10/29 01:19:56;;;;;;;9.10;4.80;;;;;;;14.67;nan;100178.22;4899369;29;20190;-76
2022/10/29 01:22:57;;;;;;;10.68;5.20;;;;;;;14.68;nan;100176.44;4892886;29;20195;-76
2022/10/29 01:25:37;;;;;;;11.82;6.47;;;;;;;14.71;nan;100176.19;4899670;29;20183;-76
2022/10/29 01:28:40;;;;;;;11.77;5.63;;;;;;;14.73;nan;100167.22;4900093;29;20198;-75
2022/10/29 01:31:08;;;;;;;13.32;6.00;;;;;;;14.74;nan;100158.34;4899134;29;20190;-76
2022/10/29 01:33:57;;;;;;;7.68;5.15;;;;;;;14.77;nan;100166.03;4897370;29;20555;-75
2022/10/29 01:36:45;;;;;;;9.07;5.82;;;;;;;14.81;nan;100164.84;4899282;29;20692;-75
2022/10/29 01:39:36;;;;;;;10.93;4.15;;;;;;;14.81;nan;100161.38;4898308;29;20183;-76
2022/10/29 01:42:10;;;;;;;7.53;4.93;;;;;;;14.83;nan;100162.94;4895401;29;20202;-75
2022/10/29 01:44:49;;;;;;;9.10;4.43;;;;;;;14.85;nan;100159.34;4897826;29;20174;-76
2022/10/29 01:47:18;;;;;;;14.18;5.97;;;;;;;14.82;nan;100155.97;4898466;29;20293;-76
2022/10/29 01:49:49;;;;;;;8.48;4.63;;;;;;;14.79;nan;100165.91;4898584;29;20704;-76
2022/10/29 01:52:17;;;;;;;6.28;4.30;;;;;;;14.77;nan;100165.19;4897183;29;20222;-76
2022/10/29 01:54:44;;;;;;;8.18;4.60;;;;;;;14.75;nan;100167.94;4897272;29;20183;-75
2022/10/29 01:57:30;;;;;;;8.02;5.25;;;;;;;14.73;nan;100167.22;4894649;29;20203;-76
2022/10/29 02:00:06;;;;;;;9.77;5.18;;;;;;;14.68;nan;100163.22;4899400;29;20193;-76
2022/10/29 02:03:19;;;;;;;9.50;5.22;;;;;;;14.62;nan;100164.50;4896402;29;20189;-76
2022/10/29 02:06:09;;;;;;;8.23;4.88;;;;;;;14.63;nan;100163.53;4895927;29;20198;-75
2022/10/29 02:08:50;;;;;;;6.43;3.70;;;;;;;14.59;nan;100148.84;4893956;29;20302;-76
2022/10/29 02:11:29;;;;;;;6.30;4.22;;;;;;;14.60;nan;100154.00;4897153;29;20209;-75
2022/10/29 02:13:57;;;;;;;9.13;4.20;;;;;;;14.60;nan;100146.09;4896347;29;20229;-76
2022/10/29 02:16:24;;;;;;;7.38;4.55;;;;;;;14.58;nan;100149.78;4897545;29;20497;-76
2022/10/29 02:18:50;;;;;;;9.80;6.03;;;;;;;14.59;nan;100151.50;4895808;29;20199;-76
2022/10/29 02:21:17;;;;;;;13.60;5.77;;;;;;;14.56;nan;100147.28;4893773;29;20197;-76
2022/10/29 02:23:42;;;;;;;7.30;5.53;;;;;;;14.54;nan;100143.88;4896446;29;20608;-76
2022/10/29 02:26:08;;;;;;;8.60;3.97;;;;;;;14.52;nan;100142.28;4893148;29;20318;-76
2022/10/29 02:28:34;;;;;;;11.87;5.20;;;;;;;14.50;nan;100142.41;4896923;29;20211;-76
2022/10/29 02:30:59;;;;;;;7.47;4.10;;;;;;;14.51;nan;100136.16;4896288;29;20544;-76
2022/10/29 02:33:24;;;;;;;5.17;3.40;;;;;;;14.53;nan;100123.72;4895386;29;20196;-76
2022/10/29 02:35:50;;;;;;;6.97;4.30;;;;;;;14.56;nan;100122.66;4894824;29;20693;-76
2022/10/29 02:38:15;;;;;;;7.10;4.07;;;;;;;14.54;nan;100121.91;4894852;29;20568;-77
2022/10/29 02:40:41;;;;;;;7.63;3.93;;;;;;;14.54;nan;100117.44;4895801;29;20248;-76
2022/10/29 02:43:06;;;;;;;12.03;5.93;;;;;;;14.52;nan;100113.19;4893277;29;20950;-76
2022/10/29 02:45:32;;;;;;;11.23;5.40;;;;;;;14.50;nan;100115.09;4895249;29;20405;-76
2022/10/29 02:47:57;;;;;;;11.53;5.23;;;;;;;14.48;nan;100114.38;4895462;29;20197;-75
2022/10/29 02:50:22;;;;;;;9.53;5.20;;;;;;;14.44;nan;100112.91;4892631;29;20198;-76
2022/10/29 02:52:48;;;;;;;8.93;4.70;;;;;;;14.43;nan;100113.88;4893208;29;20194;-76
2022/10/29 02:55:13;;;;;;;9.50;4.43;;;;;;;14.43;nan;100101.50;4894788;29;20195;-76
2022/10/29 02:57:42;;;;;;;7.70;4.20;;;;;;;14.43;nan;100100.66;4895586;29;20210;-77
2022/10/29 03:00:08;;;;;;;8.90;5.95;;;;;;;14.42;nan;100104.22;4895389;29;20293;-76
2022/10/29 03:02:33;;;;;;;9.03;4.13;;;;;;;14.41;nan;100094.63;4895480;29;20235;-76
2022/10/29 03:04:59;;;;;;;7.90;5.00;;;;;;;14.38;nan;100088.59;4894596;29;20442;-76
2022/10/29 03:07:24;;;;;;;9.43;3.63;;;;;;;14.36;nan;100084.38;4894269;29;20229;-76
2022/10/29 03:09:49;;;;;;;8.40;4.13;;;;;;;14.33;nan;100087.25;4896372;29;20203;-76
2022/10/29 03:12:15;;;;;;;9.17;4.20;;;;;;;14.31;nan;100086.50;4894295;29;20198;-76
2022/10/29 03:14:40;;;;;;;10.20;4.87;;;;;;;14.28;nan;100087.56;4894222;29;20398;-76
2022/10/29 03:17:05;;;;;;;5.80;4.60;;;;;;;14.27;nan;100088.53;4895093;29;20221;-77
2022/10/29 03:19:31;;;;;;;6.87;4.27;;;;;;;14.21;nan;100078.41;4893585;29;20183;-76
2022/10/29 03:21:57;;;;;;;12.03;4.00;;;;;;;14.18;nan;100073.34;4895005;29;20195;-76
2022/10/29 03:24:22;;;;;;;9.47;4.43;;;;;;;14.16;nan;100077.88;4898423;29;20187;-76
2022/10/29 03:26:47;;;;;;;12.57;5.50;;;;;;;14.16;nan;100085.81;4895187;29;20207;-76
2022/10/29 03:29:13;;;;;;;8.80;4.23;;;;;;;14.14;nan;100075.34;4895873;29;20537;-76
2022/10/29 03:31:38;;;;;;;20.37;5.00;;;;;;;14.15;nan;100077.03;4893894;29;20206;-76
2022/10/29 03:34:04;;;;;;;6.90;4.27;;;;;;;14.15;nan;100084.13;4894542;29;20230;-76
2022/10/29 03:36:29;;;;;;;9.17;4.70;;;;;;;14.13;nan;100086.03;4892031;29;20500;-76
2022/10/29 03:38:54;;;;;;;7.50;4.00;;;;;;;14.12;nan;100079.03;4895569;29;20223;-76
2022/10/29 03:41:20;;;;;;;6.63;4.33;;;;;;;14.10;nan;100075.69;4895088;29;20241;-76
2022/10/29 03:43:45;;;;;;;7.00;4.50;;;;;;;14.08;nan;100083.72;4896103;29;20201;-76
2022/10/29 03:46:11;;;;;;;15.20;6.40;;;;;;;14.06;nan;100079.47;4894352;29;20211;-76
2022/10/29 03:48:36;;;;;;;11.00;4.70;;;;;;;14.04;nan;100084.03;4893349;29;20203;-76
2022/10/29 03:51:04;;;;;;;6.53;4.10;;;;;;;13.99;nan;100086.13;4898616;29;20576;-76
2022/10/29 03:53:31;;;;;;;8.45;4.55;;;;;;;13.98;nan;100087.09;4895447;29;20198;-76
2022/10/29 03:55:57;;;;;;;4.63;3.63;;;;;;;13.95;nan;100082.88;4894728;29;20210;-76
2022/10/29 03:58:23;;;;;;;7.47;4.30;;;;;;;13.88;nan;100081.59;4892974;29;20481;-76
2022/10/29 04:00:56;;;;;;;8.98;4.47;;;;;;;13.84;nan;100080.16;4894592;29;20245;-76
2022/10/29 04:03:21;;;;;;;6.45;4.22;;;;;;;13.80;nan;100083.94;4895862;29;20243;-76
2022/10/29 04:05:46;;;;;;;7.00;5.73;;;;;;;13.73;nan;100081.72;4894014;29;20255;-76
2022/10/29 04:08:12;;;;;;;6.90;4.33;;;;;;;13.67;nan;100090.09;4892108;29;20203;-76
2022/10/29 04:10:42;;;;;;;4.17;3.60;;;;;;;13.64;nan;100087.66;4896093;29;20202;-76
2022/10/29 04:13:08;;;;;;;11.30;5.70;;;;;;;13.61;nan;100084.34;4892539;29;20186;-76
2022/10/29 04:15:33;;;;;;;9.00;4.57;;;;;;;13.58;nan;100092.50;4895154;29;20573;-76
2022/10/29 04:17:58;;;;;;;4.43;3.83;;;;;;;13.57;nan;100094.28;4891963;29;20416;-76
2022/10/29 04:20:24;;;;;;;6.63;4.23;;;;;;;13.58;nan;100098.59;4895417;29;20270;-76
2022/10/29 04:22:50;;;;;;;7.43;3.60;;;;;;;13.57;nan;100098.72;4894163;29;20582;-77
2022/10/29 04:25:15;;;;;;;7.15;3.90;;;;;;;13.56;nan;100095.25;4895753;29;20191;-76
2022/10/29 04:27:41;;;;;;;7.30;4.00;;;;;;;13.56;nan;100100.53;4895085;29;20191;-76
2022/10/29 04:30:07;;;;;;;6.77;4.10;;;;;;;13.55;nan;100095.34;4892361;29;20207;-76
2022/10/29 04:32:32;;;;;;;12.80;6.25;;;;;;;13.55;nan;100096.19;4891646;29;20511;-76
2022/10/29 04:34:58;;;;;;;6.50;3.90;;;;;;;13.53;nan;100100.75;4894193;29;20624;-76
2022/10/29 04:37:23;;;;;;;5.70;3.90;;;;;;;13.52;nan;100095.56;4894265;29;20245;-76
2022/10/29 04:39:49;;;;;;;8.73;3.60;;;;;;;13.52;nan;100100.84;4895695;29;20773;-76
2022/10/29 04:42:14;;;;;;;7.30;4.20;;;;;;;13.49;nan;100108.00;4892587;29;20201;-76
2022/10/29 04:44:39;;;;;;;10.87;4.20;;;;;;;13.47;nan;100109.94;4892524;29;20191;-76
2022/10/29 04:47:05;;;;;;;6.03;4.00;;;;;;;13.44;nan;100106.63;4895836;29;20872;-76
2022/10/29 04:49:30;;;;;;;8.83;3.80;;;;;;;13.40;nan;100105.16;4892369;29;20211;-76
2022/10/29 04:51:56;;;;;;;8.43;4.40;;;;;;;13.36;nan;100098.38;4892791;29;20222;-75
2022/10/29 04:54:21;;;;;;;8.60;5.03;;;;;;;13.33;nan;100101.22;4894009;29;20194;-75
2022/10/29 04:56:46;;;;;;;6.97;4.20;;;;;;;13.30;nan;100097.00;4896186;29;20625;-75
2022/10/29 04:59:12;;;;;;;6.77;4.40;;;;;;;13.28;nan;100083.06;4896096;29;20592;-75
2022/10/29 05:01:37;;;;;;;12.10;5.53;;;;;;;13.22;nan;100083.47;4896460;29;20197;-75
2022/10/29 05:04:03;;;;;;;8.00;3.93;;;;;;;13.18;nan;100084.63;4893973;29;20191;-75
2022/10/29 05:06:28;;;;;;;14.73;4.30;;;;;;;13.13;nan;100081.44;4897205;29;20285;-75
2022/10/29 05:08:54;;;;;;;5.73;5.00;;;;;;;13.12;nan;100082.38;4898731;29;20207;-75
2022/10/29 05:11:19;;;;;;;10.13;5.23;;;;;;;13.11;nan;100081.53;4895027;29;20697;-75
2022/10/29 05:13:45;;;;;;;8.43;4.20;;;;;;;13.08;nan;100071.19;4896961;29;20767;-76
2022/10/29 05:16:10;;;;;;;7.33;4.60;;;;;;;13.06;nan;100084.47;4895977;29;20853;-75
2022/10/29 05:18:36;;;;;;;13.83;4.50;;;;;;;13.06;nan;100073.06;4896109;29;20231;-76
2022/10/29 05:21:02;;;;;;;7.70;5.57;;;;;;;13.05;nan;100066.97;4894313;29;20390;-75
2022/10/29 05:23:27;;;;;;;7.83;5.40;;;;;;;13.08;nan;100076.47;4895181;29;20230;-75
2022/10/29 05:25:54;;;;;;;7.17;4.77;;;;;;;13.08;nan;100073.84;4894057;29;20622;-74
2022/10/29 05:28:21;;;;;;;13.85;5.05;;;;;;;13.04;nan;100070.56;4893175;29;20266;-75
2022/10/29 05:30:48;;;;;;;7.95;4.82;;;;;;;13.00;nan;100062.94;4894906;29;20242;-75
2022/10/29 05:33:16;;;;;;;6.07;5.15;;;;;;;13.00;nan;100065.59;4899020;29;20178;-76
2022/10/29 05:35:47;;;;;;;8.18;4.28;;;;;;;13.00;nan;100063.78;4905298;23;20696;31
2022/10/29 05:38:13;;;;;;;11.13;4.15;;;;;;;12.99;nan;100059.47;4863093;29;20219;-76
2022/10/29 05:40:41;;;;;;;13.32;5.47;;;;;;;12.98;nan;100056.94;4869433;29;20686;-75
2022/10/29 05:43:07;;;;;;;13.55;5.00;;;;;;;12.95;nan;100060.59;4878002;29;20176;-76
2022/10/29 05:45:33;;;;;;;8.10;5.10;;;;;;;12.94;nan;100061.56;4878827;29;20183;-75
2022/10/29 05:48:00;;;;;;;10.13;5.18;;;;;;;12.93;nan;100056.38;4880176;29;20207;-75
2022/10/29 05:50:27;;;;;;;11.45;5.28;;;;;;;12.91;nan;100063.53;4877810;29;20210;-75
2022/10/29 05:52:59;;;;;;;7.00;4.75;;;;;;;12.90;nan;100056.59;4879567;29;20191;-75
2022/10/29 05:55:26;;;;;;;6.75;4.97;;;;;;;12.88;nan;100072.53;4878169;29;20335;-75
2022/10/29 05:57:58;;;;;;;15.82;6.65;;;;;;;12.86;nan;100063.88;4875881;29;20195;-78
2022/10/29 06:00:26;;;;;;;9.75;4.90;;;;;;;12.84;nan;100071.03;4878947;29;20188;-77
2022/10/29 06:02:51;;;;;;;8.32;5.35;;;;;;;12.84;nan;100065.75;4882588;29;20191;-77
2022/10/29 06:05:17;;;;;;;8.13;5.37;;;;;;;12.85;nan;100062.16;4880305;29;20179;-77
2022/10/29 06:07:42;;;;;;;13.40;7.40;;;;;;;12.87;nan;100054.16;4878177;29;20230;-77
2022/10/29 06:10:08;;;;;;;7.77;5.40;;;;;;;12.89;nan;100054.91;4876881;29;20223;-77
2022/10/29 06:12:33;;;;;;;10.00;5.47;;;;;;;12.90;nan;100062.69;4878150;29;20194;-77
2022/10/29 06:14:59;;;;;;;7.50;5.63;;;;;;;12.88;nan;100061.97;4873947;29;20243;-77
2022/10/29 06:17:25;;;;;;;11.80;6.47;;;;;;;12.88;nan;100061.09;4881258;29;20212;-77
2022/10/29 06:19:50;;;;;;;11.03;5.40;;;;;;;12.90;nan;100061.84;4879867;29;20877;-77
2022/10/29 06:22:16;;;;;;;9.33;6.33;;;;;;;12.92;nan;100063.44;4876153;29;20436;-77
2022/10/29 06:24:41;;;;;;;11.77;7.20;;;;;;;12.94;nan;100066.84;4879668;29;20195;-77
2022/10/29 06:27:06;;;;;;;13.33;8.60;;;;;;;12.96;nan;100075.50;4880691;29;20203;-77
2022/10/29 06:29:32;;;;;;;12.17;8.60;;;;;;;12.98;nan;100070.94;4880996;29;20268;-77
2022/10/29 06:31:57;;;;;;;12.30;6.87;;;;;;;12.94;nan;100068.63;4880573;29;20210;-78
2022/10/29 06:34:23;;;;;;;12.10;6.87;;;;;;;12.92;nan;100067.88;4882150;29;20196;-77
2022/10/29 06:36:48;;;;;;;7.03;5.80;;;;;;;12.92;nan;100070.53;4880072;29;20321;-77
2022/10/29 06:39:13;;;;;;;19.53;6.87;;;;;;;12.91;nan;100069.69;4874804;29;20196;-77
2022/10/29 06:41:39;;;;;;;11.07;7.17;;;;;;;12.90;nan;100067.97;4878046;29;20203;-77
2022/10/29 06:44:04;;;;;;;7.97;6.10;;;;;;;12.91;nan;100069.69;4877497;29;20192;-77
2022/10/29 06:46:30;;;;;;;11.97;7.00;;;;;;;12.94;nan;100066.84;4877666;29;20216;-77
2022/10/29 06:48:55;;;;;;;8.47;5.90;;;;;;;13.00;nan;100066.41;4876166;29;20208;-77
2022/10/29 06:51:24;;;;;;;9.90;6.80;;;;;;;13.04;nan;100073.19;4879899;29;20505;-77
2022/10/29 06:53:50;;;;;;;11.13;7.72;;;;;;;13.11;nan;100078.91;4877771;29;20320;-77
2022/10/29 06:56:15;;;;;;;10.83;7.47;;;;;;;13.14;nan;100089.25;4877044;29;20254;-77
2022/10/29 06:58:42;;;;;;;9.30;6.90;;;;;;;13.19;nan;100096.84;4879673;29;20230;-77
2022/10/29 07:01:07;;;;;;;20.88;8.38;;;;;;;13.21;nan;100093.16;4879533;29;20198;-77
2022/10/29 07:03:33;;;;;;;14.77;7.13;;;;;;;13.22;nan;100088.72;4877156;29;20211;-77
2022/10/29 07:05:58;;;;;;;12.10;8.20;;;;;;;13.25;nan;100088.53;4878518;29;20587;-77
2022/10/29 07:08:24;;;;;;;13.10;7.43;;;;;;;13.30;nan;100081.19;4876527;29;20305;-77
2022/10/29 07:10:51;;;;;;;11.93;7.30;;;;;;;13.35;nan;100089.63;4876841;29;20455;-78
2022/10/29 07:13:17;;;;;;;17.10;6.10;;;;;;;13.39;nan;100083.19;4878662;29;20443;-77
2022/10/29 07:15:42;;;;;;;15.50;8.93;;;;;;;13.43;nan;100086.47;4878780;29;20191;-77
2022/10/29 07:18:09;;;;;;;16.03;9.10;;;;;;;13.45;nan;100101.25;4877599;29;21015;-77
2022/10/29 07:20:44;;;;;;;11.82;8.93;;;;;;;13.52;nan;100092.91;4877735;29;20656;-77
2022/10/29 07:23:11;;;;;;;22.77;9.85;;;;;;;13.60;nan;100093.25;4876358;29;20198;-77
2022/10/29 07:25:40;;;;;;;18.58;10.38;;;;;;;13.70;nan;100097.78;4876222;29;20195;-78
2022/10/29 07:28:16;;;;;;;13.85;8.70;;;;;;;13.80;nan;100090.09;4874628;29;20655;-78
2022/10/29 07:30:42;;;;;;;13.60;8.50;;;;;;;13.89;nan;100093.88;4877745;29;20595;-77
2022/10/29 07:33:08;;;;;;;14.95;8.57;;;;;;;14.00;nan;100098.41;4875893;29;20184;-78
2022/10/29 07:35:34;;;;;;;21.48;10.85;;;;;;;14.09;nan;100100.41;4877813;29;20316;-78
2022/10/29 07:38:01;;;;;;;12.10;7.63;;;;;;;14.16;nan;100101.66;4872225;29;20322;-78
2022/10/29 07:40:27;;;;;;;11.90;8.18;;;;;;;14.25;nan;100098.34;4878196;29;20443;-78
2022/10/29 07:42:53;;;;;;;16.70;10.40;;;;;;;14.33;nan;100101.28;4879152;29;20674;-78
2022/10/29 07:45:19;;;;;;;10.07;7.13;;;;;;;14.41;nan;100105.19;4871550;29;20203;-78
2022/10/29 07:47:44;;;;;;;16.60;9.10;;;;;;;14.51;nan;100096.50;4876074;29;20212;-78
2022/10/29 07:50:11;;;;;;;12.77;7.20;;;;;;;14.60;nan;100101.13;4876664;29;20767;-79
2022/10/29 07:52:38;;;;;;;9.82;6.75;;;;;;;14.70;nan;100100.50;4875490;29;20199;-78
2022/10/29 07:55:04;;;;;;;18.17;9.55;;;;;;;14.79;nan;100100.63;4873391;29;20186;-78
2022/10/29 07:57:29;;;;;;;11.65;7.68;;;;;;;14.88;nan;100101.78;4875807;29;20765;-78
2022/10/29 07:59:55;;;;;;;10.60;8.27;;;;;;;14.98;nan;100099.28;4877394;29;20198;-78
2022/10/29 08:02:20;;;;;;;19.00;10.00;;;;;;;15.06;nan;100099.56;4875852;29;20215;-78
2022/10/29 08:04:45;;;;;;;15.23;9.70;;;;;;;15.14;nan;100093.69;4876697;29;20219;-79
2022/10/29 08:07:11;;;;;;;18.93;10.40;;;;;;;15.24;nan;100090.25;4873578;29;20206;-78
2022/10/29 08:09:36;;;;;;;19.37;10.70;;;;;;;15.37;nan;100094.63;4874206;29;20335;-78
2022/10/29 08:12:03;;;;;;;17.20;9.40;;;;;;;15.52;nan;100093.44;4873979;29;20270;-78
2022/10/29 08:14:29;;;;;;;23.35;10.73;;;;;;;15.68;nan;100091.34;4876994;29;20210;-78
2022/10/29 08:16:55;;;;;;;17.97;9.80;;;;;;;15.85;nan;100086.53;4876922;29;20199;-78
2022/10/29 08:19:21;;;;;;;17.47;11.27;;;;;;;16.04;nan;100089.44;4873546;29;20195;-79
2022/10/29 08:21:46;;;;;;;16.27;10.70;;;;;;;16.32;nan;100092.56;4876559;29;20599;-78
2022/10/29 08:24:11;;;;;;;14.80;8.67;;;;;;;16.85;nan;100086.53;4876119;29;20494;-78
2022/10/29 08:26:37;;;;;;;12.63;8.93;;;;;;;17.64;nan;100082.50;4875091;29;20216;-78
2022/10/29 08:29:03;;;;;;;10.63;6.80;;;;;;;18.52;nan;100081.06;4879326;29;20225;-78
2022/10/29 08:31:28;;;;;;;29.52;17.48;;;;;;;19.23;nan;100077.34;4876879;29;20941;-78
2022/10/29 08:33:54;;;;;;;41.10;25.10;;;;;;;19.74;nan;100076.16;4879893;29;20198;-78
2022/10/29 08:36:19;;;;;;;58.07;35.30;;;;;;;20.22;nan;100063.59;4878128;29;20227;-78
2022/10/29 08:38:48;;;;;;;30.50;23.60;;;;;;;20.80;nan;100068.59;4879356;29;20188;-78
2022/10/29 08:41:32;;;;;;;32.30;21.57;;;;;;;;;;4876978;29;20194;-78
2022/10/29 08:44:14;;;;;;;27.07;14.27;;;;;;;;;;5045271;23;20503;-93
2022/10/29 08:47:15;;;;;;;;;;;;;;;;;;;;;
2022/10/29 08:50:43;;;;;;;;;;;;;;;;;;;;;
2022/10/29 08:54:04;;;;;;;;;;;;;;;;;;;;;
2022/10/29 09:01:22;;;;;;;;;;;;;;;;;;;;;
2022/10/29 09:04:32;;;;;;;;;;;;;;;;;;;;;
2022/10/29 09:07:36;;;;;;;;;;;;;;;;;;;;;
2022/10/29 09:11:00;;;;;;;;;;;;;;;;;;;;;
2022/10/29 09:13:41;;;;;;;7.20;5.77;;;;;;;25.40;nan;100063.25;4896047;29;20444;-90
2022/10/29 09:16:41;;;;;;;14.13;11.70;;;;;;;25.78;nan;100068.59;4911384;29;20797;-90
2022/10/29 09:19:19;;;;;;;13.60;8.30;;;;;;;25.97;nan;100059.97;4918458;29;20419;-91
2022/10/29 09:21:58;;;;;;;18.00;7.77;;;;;;;26.18;nan;100053.84;4922588;29;20447;-90
2022/10/29 09:25:02;;;;;;;56.90;10.10;;;;;;;26.09;nan;100059.53;4905168;29;20473;-90
2022/10/29 09:28:35;;;;;;;;;;;;;;;;;;;;;
2022/10/29 09:31:23;;;;;;;14.10;5.10;;;;;;;25.63;nan;100054.28;4893364;29;20460;-89
2022/10/29 09:33:55;;;;;;;8.63;4.70;;;;;;;25.43;nan;100051.31;4892977;29;20519;-90
2022/10/29 09:36:46;;;;;;;9.57;5.10;;;;;;;25.28;nan;100065.56;4891588;29;20440;-91
2022/10/29 09:39:41;;;;;;;10.70;5.97;;;;;;;25.04;nan;100066.56;4924273;29;20441;-90
2022/10/29 09:43:03;;;;;;;;;;;;;;;;;;;;;
2022/10/29 09:46:19;;;;;;;8.30;5.27;;;;;;;24.10;nan;100081.88;4931495;29;20473;-91
2022/10/29 09:52:28;;;;;;;;;;;;;;;;;;;;;
2022/10/29 09:55:29;;;;;;;7.43;3.90;;;;;;;23.26;nan;100075.97;4921498;29;20491;-90
2022/10/29 09:58:06;;;;;;;;;;;;;;;;;;;;;
2022/10/29 10:00:49;;;;;;;7.30;3.93;;;;;;;22.93;nan;100072.44;4911381;29;20863;-88
2022/10/29 10:03:53;;;;;;;11.70;4.53;;;;;;;22.92;nan;100073.44;4890359;29;20441;-89
2022/10/29 10:06:19;;;;;;;7.23;4.30;;;;;;;22.86;nan;100074.94;4888013;29;20422;-91
2022/10/29 10:09:07;;;;;;;12.63;5.13;;;;;;;22.83;nan;100074.44;4891317;29;20993;-89
2022/10/29 10:11:53;;;;;;;10.30;4.83;;;;;;;22.77;nan;100075.09;4893427;29;20196;-91
2022/10/29 10:14:35;;;;;;;;;;;;;;;;;;;;;
2022/10/29 10:17:30;;;;;;;9.90;4.13;;;;;;;22.64;nan;100064.88;4900287;29;20419;-91
2022/10/29 10:20:08;;;;;;;;;;;;;;;;;;;;;
2022/10/29 10:22:46;;;;;;;7.60;4.70;;;;;;;22.47;nan;100069.34;4898036;28;20483;-89
2022/10/29 10:25:37;;;;;;;7.83;4.63;;;;;;;22.48;nan;100060.31;4900992;29;20434;-89
2022/10/29 10:28:38;;;;;;;;;;;;;;;;;;;;;
2022/10/29 10:31:23;;;;;;;8.00;4.40;;;;;;;22.63;nan;100064.03;4910829;29;21383;-91
2022/10/29 10:34:03;;;;;;;;;;;;;;;;;;;;;
2022/10/29 10:36:45;;;;;;;6.17;3.53;;;;;;;22.88;nan;100061.38;4894261;29;20438;-91
2022/10/29 10:39:26;;;;;;;8.40;4.20;;;;;;;22.95;nan;100062.38;4877800;29;20890;-92
2022/10/29 10:42:14;;;;;;;5.83;5.23;;;;;;;23.01;nan;100052.84;4886179;29;21384;-92
2022/10/29 10:45:27;;;;;;;;;;;;;;;;;;;;;
2022/10/29 10:48:06;;;;;;;6.90;4.17;;;;;;;22.81;nan;100047.81;4888930;29;21152;-90
2022/10/29 10:50:43;;;;;;;7.30;4.53;;;;;;;22.79;nan;100047.16;4893815;29;20944;-91
2022/10/29 10:53:19;;;;;;;10.00;4.00;;;;;;;22.80;nan;100034.59;4898817;29;20452;-89
2022/10/29 10:56:01;;;;;;;6.33;3.47;;;;;;;22.80;nan;100034.59;4921367;28;20990;-90
2022/10/29 10:59:16;;;;;;;6.83;4.00;;;;;;;22.85;nan;100027.72;4891543;29;20814;-90
2022/10/29 11:02:01;;;;;;;6.77;4.57;;;;;;;22.85;nan;100027.72;4889561;29;20422;-91
2022/10/29 11:04:37;;;;;;;5.30;3.73;;;;;;;22.82;nan;100016.50;4889303;29;20490;-90
2022/10/29 11:07:14;;;;;;;7.05;4.22;;;;;;;22.82;nan;100020.03;4890044;29;21095;-90
2022/10/29 11:09:56;;;;;;;6.00;3.90;;;;;;;22.78;nan;100009.81;4890378;29;21248;-91
2022/10/29 11:13:01;;;;;;;15.43;5.00;;;;;;;22.78;nan;100001.78;4893439;29;21095;-91
2022/10/29 11:16:06;;;;;;;9.00;4.33;;;;;;;22.85;nan;99997.44;4888240;29;20422;-90
2022/10/29 11:18:58;;;;;;;8.93;3.90;;;;;;;22.80;nan;99991.75;4890347;29;20779;-90
2022/10/29 11:21:39;;;;;;;4.60;3.40;;;;;;;22.81;nan;99980.84;4921112;28;20467;-90
2022/10/29 11:24:19;;;;;;;6.93;3.60;;;;;;;22.83;nan;99972.66;4897351;29;21118;-89
2022/10/29 11:27:42;;;;;;;;;;;;;;;;;;;;;
2022/10/29 11:30:19;;;;;;;6.83;3.67;;;;;;;22.96;nan;99971.16;4883930;29;20470;-91
2022/10/29 11:33:25;;;;;;;8.00;5.07;;;;;;;23.05;nan;99955.06;4889881;29;20459;-90
2022/10/29 11:36:14;;;;;;;6.60;3.73;;;;;;;23.12;nan;99950.72;4889843;29;20959;-90
2022/10/29 11:38:58;;;;;;;8.83;4.87;;;;;;;23.18;nan;99948.19;4889483;29;20409;-90
2022/10/29 11:41:54;;;;;;;13.23;3.83;;;;;;;23.23;nan;99942.31;4892733;29;20430;-91
2022/10/29 11:44:40;;;;;;;10.97;3.93;;;;;;;23.29;nan;99927.41;4889690;29;20481;-90
2022/10/29 11:47:17;;;;;;;7.20;3.33;;;;;;;23.34;nan;99927.72;4890286;29;20439;-91
2022/10/29 11:50:21;;;;;;;;;;;;;;;;;;;;;
2022/10/29 11:53:35;;;;;;;8.70;3.70;;;;;;;23.35;nan;99932.88;4889360;29;20448;-90
2022/10/29 11:56:32;;;;;;;7.77;3.20;;;;;;;23.44;nan;99928.38;4887595;29;20423;-90
2022/10/29 11:59:22;;;;;;;10.57;4.60;;;;;;;23.51;nan;99921.28;4891388;29;20740;-91
2022/10/29 12:02:18;;;;;;;8.17;4.40;;;;;;;23.57;nan;99917.06;4924134;28;20725;-91
2022/10/29 12:05:23;;;;;;;;;;;;;;;;;;;;;
2022/10/29 12:08:28;;;;;;;11.47;4.23;;;;;;;23.63;nan;99906.50;4893613;29;20623;-89
2022/10/29 12:11:10;;;;;;;9.20;4.30;;;;;;;23.66;nan;99908.00;4891947;29;20968;-90
2022/10/29 12:17:26;;;;;;;8.07;5.17;;;;;;;23.70;nan;99895.06;4901532;29;20435;-92
2022/10/29 12:20:13;;;;;;;5.20;3.60;;;;;;;23.70;nan;99884.31;4900159;29;20480;-90
2022/10/29 12:23:03;;;;;;;7.83;3.50;;;;;;;23.70;nan;99890.53;4890516;29;20442;-91
2022/10/29 12:25:49;;;;;;;7.17;4.47;;;;;;;23.73;nan;99886.69;4890617;28;20436;-91
2022/10/29 12:28:43;;;;;;;13.10;4.33;;;;;;;23.76;nan;99883.66;4894820;29;20569;-91
2022/10/29 12:31:41;;;;;;;6.60;4.30;;;;;;;23.79;nan;99881.47;4914502;29;20432;-91
2022/10/29 12:34:42;;;;;;;;;;;;;;;;;;;;;
2022/10/29 12:37:40;;;;;;;12.63;4.50;;;;;;;23.86;nan;99876.22;4897185;29;20501;-93
2022/10/29 12:40:53;;;;;;;9.13;5.20;;;;;;;23.90;nan;99874.88;4926225;28;21177;-92
2022/10/29 12:52:33;;;;;;;8.40;3.63;;;;;;;23.89;nan;99861.63;4892347;29;20455;-92
2022/10/29 12:59:32;;;;;;;14.07;4.43;;;;;;;24.14;nan;99862.25;4889024;29;20518;-93
2022/10/29 13:06:33;;;;;;;;;;;;;;;;;;;;;
2022/10/29 13:13:44;;;;;;;;;;;;;;;;;;;;;
2022/10/29 13:16:39;;;;;;;9.57;4.77;;;;;;;24.59;nan;99844.47;4906834;29;20447;-91
2022/10/29 13:23:23;;;;;;;8.87;4.10;;;;;;;24.70;nan;99842.16;4888806;29;20446;-91